GLD166 SBVT-SBCT
Flight info
| Callsign | GLD166 |
|---|---|
| Flight time | N/A |
| Altitude | 36000 |
| Route | VAPO1C MABSI UZ44 ADA UZ45 RAXIT RAXI1A |
| Aircraft | A320/M-SDFGIRY/S |
Departure
| Time | 2026-04-16 19:26 |
|---|---|
| Airport | Eurico de Aguiar Salles International Airport (SBVT) |
Arrival
| Time | N/A |
|---|---|
| Airport | Curitiba-Afonso Pena International Airport (SBCT) |
| Time | Latitude | Longitude | Altitude | Speed | Heading |
|---|---|---|---|---|---|
| 2026-04-16 19:15 | -20.25706 | -40.28858 | 34 ft | 0 kts | 302° |
| 2026-04-16 19:19 | -20.25707 | -40.28857 | 18 ft | 2 kts | 302° |
| 2026-04-16 19:19 | -20.25717 | -40.28842 | 19 ft | 3 kts | 326° |
| 2026-04-16 19:19 | -20.25734 | -40.28834 | 19 ft | 3 kts | 2° |
| 2026-04-16 19:19 | -20.25751 | -40.28839 | 18 ft | 2 kts | 35° |
| 2026-04-16 19:20 | -20.25754 | -40.28841 | 18 ft | 0 kts | 35° |
| 2026-04-16 19:22 | -20.25745 | -40.28834 | 20 ft | 3 kts | 35° |
| 2026-04-16 19:22 | -20.25720 | -40.28815 | 19 ft | 6 kts | 35° |
| 2026-04-16 19:23 | -20.25705 | -40.28773 | 18 ft | 8 kts | 103° |
| 2026-04-16 19:23 | -20.25736 | -40.28711 | 16 ft | 12 kts | 121° |
| 2026-04-16 19:23 | -20.25717 | -40.28630 | 16 ft | 14 kts | 38° |
| 2026-04-16 19:23 | -20.25629 | -40.28574 | 16 ft | 16 kts | 30° |
| 2026-04-16 19:24 | -20.25526 | -40.28510 | 16 ft | 18 kts | 30° |
| 2026-04-16 19:24 | -20.25413 | -40.28437 | 18 ft | 20 kts | 31° |
| 2026-04-16 19:24 | -20.25291 | -40.28357 | 19 ft | 22 kts | 31° |
| 2026-04-16 19:24 | -20.25153 | -40.28268 | 19 ft | 24 kts | 31° |
| 2026-04-16 19:25 | -20.25018 | -40.28178 | 21 ft | 20 kts | 33° |
| 2026-04-16 19:25 | -20.25005 | -40.28084 | 20 ft | 15 kts | 160° |
| 2026-04-16 19:25 | -20.25297 | -40.28040 | 22 ft | 86 kts | 172° |
| 2026-04-16 19:25 | -20.26136 | -40.27909 | 141 ft | 146 kts | 171° |
| 2026-04-16 19:26 | -20.27197 | -40.27746 | 770 ft | 160 kts | 173° |
| 2026-04-16 19:26 | -20.28333 | -40.27584 | 1587 ft | 169 kts | 172° |
| 2026-04-16 19:26 | -20.29549 | -40.27411 | 2213 ft | 185 kts | 173° |
| 2026-04-16 19:26 | -20.30879 | -40.27216 | 2604 ft | 198 kts | 173° |
| 2026-04-16 19:27 | -20.32257 | -40.27015 | 3199 ft | 203 kts | 173° |
| 2026-04-16 19:27 | -20.33744 | -40.26798 | 3545 ft | 228 kts | 173° |
| 2026-04-16 19:27 | -20.35429 | -40.26641 | 4021 ft | 251 kts | 187° |
| 2026-04-16 19:27 | -20.37068 | -40.27343 | 4755 ft | 261 kts | 212° |
| 2026-04-16 19:28 | -20.38631 | -40.28374 | 5636 ft | 267 kts | 211° |
| 2026-04-16 19:28 | -20.40244 | -40.29384 | 6524 ft | 271 kts | 210° |
| 2026-04-16 19:28 | -20.41908 | -40.30372 | 7369 ft | 276 kts | 208° |
| 2026-04-16 19:28 | -20.43617 | -40.31348 | 8240 ft | 280 kts | 208° |
| 2026-04-16 19:29 | -20.45360 | -40.32315 | 9110 ft | 284 kts | 207° |
| 2026-04-16 19:29 | -20.47133 | -40.33283 | 9945 ft | 289 kts | 207° |
| 2026-04-16 19:29 | -20.48970 | -40.34279 | 10368 ft | 308 kts | 207° |
| 2026-04-16 19:29 | -20.50950 | -40.35352 | 10699 ft | 326 kts | 207° |
| 2026-04-16 19:30 | -20.52995 | -40.36460 | 11318 ft | 333 kts | 207° |
| 2026-04-16 19:30 | -20.55075 | -40.37592 | 11996 ft | 338 kts | 207° |
| 2026-04-16 19:30 | -20.57176 | -40.38736 | 12685 ft | 342 kts | 207° |
| 2026-04-16 19:30 | -20.59306 | -40.39894 | 13383 ft | 345 kts | 207° |
| 2026-04-16 19:31 | -20.61457 | -40.41064 | 14035 ft | 349 kts | 207° |
| 2026-04-16 19:31 | -20.63627 | -40.42246 | 14651 ft | 351 kts | 207° |
| 2026-04-16 19:31 | -20.65808 | -40.43435 | 15264 ft | 353 kts | 207° |
| 2026-04-16 19:31 | -20.68003 | -40.44635 | 15858 ft | 356 kts | 207° |
| 2026-04-16 19:32 | -20.70216 | -40.45844 | 16454 ft | 358 kts | 207° |
| 2026-04-16 19:32 | -20.72445 | -40.47063 | 17045 ft | 361 kts | 207° |
| 2026-04-16 19:32 | -20.74684 | -40.48287 | 17626 ft | 364 kts | 208° |
| 2026-04-16 19:32 | -20.76947 | -40.49524 | 18221 ft | 366 kts | 208° |
| 2026-04-16 19:33 | -20.79223 | -40.50770 | 18732 ft | 369 kts | 208° |
| 2026-04-16 19:33 | -20.81517 | -40.52022 | 19249 ft | 371 kts | 208° |
| 2026-04-16 19:33 | -20.83827 | -40.53283 | 19768 ft | 374 kts | 208° |
| 2026-04-16 19:33 | -20.86178 | -40.54567 | 20297 ft | 376 kts | 208° |
| 2026-04-16 19:34 | -20.88520 | -40.55846 | 20824 ft | 379 kts | 208° |
| 2026-04-16 19:34 | -20.90801 | -40.57266 | 21342 ft | 381 kts | 216° |
| 2026-04-16 19:34 | -20.92920 | -40.58982 | 21863 ft | 384 kts | 218° |
| 2026-04-16 19:34 | -20.95049 | -40.60723 | 22392 ft | 386 kts | 218° |
| 2026-04-16 19:35 | -20.97189 | -40.62477 | 22921 ft | 389 kts | 218° |
| 2026-04-16 19:35 | -20.99348 | -40.64249 | 23442 ft | 392 kts | 218° |
| 2026-04-16 19:35 | -21.01516 | -40.66026 | 23888 ft | 395 kts | 218° |
| 2026-04-16 19:35 | -21.03700 | -40.67816 | 24327 ft | 396 kts | 218° |
| 2026-04-16 19:36 | -21.05896 | -40.69618 | 24760 ft | 398 kts | 218° |
| 2026-04-16 19:36 | -21.08102 | -40.71425 | 25184 ft | 400 kts | 218° |
| 2026-04-16 19:36 | -21.10318 | -40.73238 | 25606 ft | 402 kts | 218° |
| 2026-04-16 19:36 | -21.12542 | -40.75062 | 26020 ft | 404 kts | 218° |
| 2026-04-16 19:37 | -21.14777 | -40.76896 | 26429 ft | 406 kts | 218° |
| 2026-04-16 19:37 | -21.17022 | -40.78739 | 26827 ft | 407 kts | 218° |
| 2026-04-16 19:37 | -21.19291 | -40.80603 | 26985 ft | 415 kts | 218° |
| 2026-04-16 19:37 | -21.21603 | -40.82504 | 27110 ft | 423 kts | 218° |
| 2026-04-16 19:38 | -21.23958 | -40.84441 | 27235 ft | 430 kts | 218° |
| 2026-04-16 19:38 | -21.26352 | -40.86411 | 27356 ft | 437 kts | 218° |
| 2026-04-16 19:38 | -21.28780 | -40.88406 | 27482 ft | 443 kts | 218° |
| 2026-04-16 19:38 | -21.31240 | -40.90429 | 27610 ft | 448 kts | 218° |
| 2026-04-16 19:39 | -21.33728 | -40.92477 | 27735 ft | 453 kts | 218° |
| 2026-04-16 19:39 | -21.36239 | -40.94548 | 27865 ft | 457 kts | 218° |
| 2026-04-16 19:39 | -21.38769 | -40.96640 | 28029 ft | 460 kts | 218° |
| 2026-04-16 19:39 | -21.41297 | -40.98728 | 28266 ft | 460 kts | 218° |
| 2026-04-16 19:40 | -21.43834 | -41.00819 | 28542 ft | 459 kts | 218° |
| 2026-04-16 19:40 | -21.46364 | -41.02903 | 28832 ft | 458 kts | 218° |
| 2026-04-16 19:40 | -21.48888 | -41.04984 | 29127 ft | 457 kts | 218° |
| 2026-04-16 19:40 | -21.51408 | -41.07065 | 29433 ft | 456 kts | 219° |
| 2026-04-16 19:41 | -21.53917 | -41.09139 | 29750 ft | 455 kts | 219° |
| 2026-04-16 19:41 | -21.56422 | -41.11211 | 30057 ft | 454 kts | 219° |
| 2026-04-16 19:41 | -21.58112 | -41.12608 | 30237 ft | 453 kts | 219° |
| 2026-04-16 19:41 | -21.60607 | -41.14670 | 30509 ft | 452 kts | 219° |
| 2026-04-16 19:42 | -21.63089 | -41.16726 | 30783 ft | 451 kts | 219° |
| 2026-04-16 19:42 | -21.65573 | -41.18781 | 31055 ft | 450 kts | 219° |
| 2026-04-16 19:42 | -21.68052 | -41.20831 | 31340 ft | 449 kts | 219° |
| 2026-04-16 19:42 | -21.70522 | -41.22874 | 31624 ft | 448 kts | 219° |
| 2026-04-16 19:43 | -21.72992 | -41.24922 | 31915 ft | 447 kts | 219° |
| 2026-04-16 19:43 | -21.75443 | -41.26966 | 32204 ft | 446 kts | 219° |
| 2026-04-16 19:43 | -21.77884 | -41.29015 | 32512 ft | 445 kts | 219° |
| 2026-04-16 19:43 | -21.80317 | -41.31069 | 32823 ft | 444 kts | 219° |
| 2026-04-16 19:44 | -21.82743 | -41.33119 | 33138 ft | 443 kts | 220° |
| 2026-04-16 19:44 | -21.85162 | -41.35161 | 33464 ft | 442 kts | 219° |
| 2026-04-16 19:44 | -21.87577 | -41.37198 | 33789 ft | 441 kts | 220° |
| 2026-04-16 19:44 | -21.89986 | -41.39232 | 34104 ft | 439 kts | 220° |
| 2026-04-16 19:45 | -21.92382 | -41.41257 | 34417 ft | 438 kts | 220° |
| 2026-04-16 19:45 | -21.94778 | -41.43278 | 34741 ft | 436 kts | 220° |
| 2026-04-16 19:45 | -21.97152 | -41.45282 | 35084 ft | 434 kts | 220° |
| 2026-04-16 19:45 | -21.99525 | -41.47288 | 35427 ft | 432 kts | 220° |
| 2026-04-16 19:46 | -22.01882 | -41.49283 | 35775 ft | 429 kts | 220° |
| 2026-04-16 19:46 | -22.04226 | -41.51269 | 35938 ft | 429 kts | 220° |
| 2026-04-16 19:46 | -22.06569 | -41.53256 | 35980 ft | 428 kts | 220° |
| 2026-04-16 19:47 | -22.11279 | -41.57241 | 35975 ft | 427 kts | 220° |
| 2026-04-16 19:47 | -22.15954 | -41.61197 | 35967 ft | 427 kts | 220° |
| 2026-04-16 19:48 | -22.20625 | -41.65149 | 35959 ft | 426 kts | 220° |
| 2026-04-16 19:48 | -22.25290 | -41.69105 | 35952 ft | 427 kts | 220° |
| 2026-04-16 19:49 | -22.29951 | -41.73072 | 35952 ft | 427 kts | 220° |
| 2026-04-16 19:49 | -22.34638 | -41.77014 | 35957 ft | 428 kts | 217° |
| 2026-04-16 19:50 | -22.39674 | -41.80478 | 35961 ft | 429 kts | 215° |
| 2026-04-16 19:50 | -22.44717 | -41.83918 | 35969 ft | 429 kts | 215° |
| 2026-04-16 19:51 | -22.49758 | -41.87369 | 35980 ft | 429 kts | 215° |
| 2026-04-16 19:51 | -22.54794 | -41.90829 | 35991 ft | 429 kts | 215° |
| 2026-04-16 19:52 | -22.59833 | -41.94286 | 35993 ft | 429 kts | 215° |
| 2026-04-16 19:52 | -22.64872 | -41.97746 | 35984 ft | 429 kts | 215° |
| 2026-04-16 19:53 | -22.69891 | -42.01233 | 35976 ft | 428 kts | 216° |
| 2026-04-16 19:53 | -22.74841 | -42.04820 | 35967 ft | 428 kts | 217° |
| 2026-04-16 19:54 | -22.79592 | -42.08661 | 35968 ft | 424 kts | 227° |
| 2026-04-16 19:54 | -22.83066 | -42.13765 | 35965 ft | 421 kts | 244° |
| 2026-04-16 19:55 | -22.85561 | -42.19558 | 35969 ft | 421 kts | 245° |
| 2026-04-16 19:55 | -22.88020 | -42.25318 | 35976 ft | 421 kts | 245° |
| 2026-04-16 19:56 | -22.90472 | -42.31088 | 35991 ft | 421 kts | 245° |
| 2026-04-16 19:56 | -22.92922 | -42.36856 | 36001 ft | 421 kts | 245° |
| 2026-04-16 19:57 | -22.95368 | -42.42625 | 36008 ft | 421 kts | 245° |
| 2026-04-16 19:57 | -22.97815 | -42.48398 | 36013 ft | 421 kts | 245° |
| 2026-04-16 19:58 | -23.00258 | -42.54162 | 36009 ft | 421 kts | 245° |
| 2026-04-16 19:58 | -23.02699 | -42.59929 | 36009 ft | 420 kts | 245° |
| 2026-04-16 19:59 | -23.05129 | -42.65695 | 36009 ft | 420 kts | 245° |
| 2026-04-16 19:59 | -23.07558 | -42.71466 | 36009 ft | 420 kts | 245° |
| 2026-04-16 20:00 | -23.11211 | -42.80108 | 36010 ft | 420 kts | 245° |
| 2026-04-16 20:00 | -23.13642 | -42.85873 | 36011 ft | 419 kts | 246° |
| 2026-04-16 20:01 | -23.15781 | -42.90993 | 36006 ft | 419 kts | 246° |
| 2026-04-16 20:01 | -23.18156 | -42.96664 | 36009 ft | 419 kts | 246° |
| 2026-04-16 20:02 | -23.20585 | -43.02461 | 36015 ft | 418 kts | 246° |
| 2026-04-16 20:02 | -23.23003 | -43.08213 | 36014 ft | 418 kts | 246° |
| 2026-04-16 20:03 | -23.25136 | -43.13283 | 36009 ft | 418 kts | 246° |
| 2026-04-16 20:03 | -23.27542 | -43.19039 | 36006 ft | 418 kts | 246° |
| 2026-04-16 20:04 | -23.29934 | -43.24795 | 36007 ft | 418 kts | 246° |
| 2026-04-16 20:04 | -23.31749 | -43.30775 | 36009 ft | 417 kts | 255° |
| 2026-04-16 20:05 | -23.33184 | -43.36891 | 36007 ft | 417 kts | 255° |
| 2026-04-16 20:05 | -23.34627 | -43.42999 | 36008 ft | 417 kts | 255° |
| 2026-04-16 20:06 | -23.36070 | -43.49096 | 36010 ft | 416 kts | 255° |
| 2026-04-16 20:06 | -23.37505 | -43.55206 | 36009 ft | 416 kts | 255° |
| 2026-04-16 20:07 | -23.38930 | -43.61308 | 36010 ft | 416 kts | 255° |
| 2026-04-16 20:07 | -23.40348 | -43.67407 | 36005 ft | 416 kts | 256° |
| 2026-04-16 20:08 | -23.41767 | -43.73512 | 36008 ft | 416 kts | 256° |
| 2026-04-16 20:08 | -23.43184 | -43.79612 | 36006 ft | 415 kts | 256° |
| 2026-04-16 20:09 | -23.44601 | -43.85708 | 36005 ft | 415 kts | 256° |
| 2026-04-16 20:09 | -23.46024 | -43.91845 | 36004 ft | 415 kts | 256° |
| 2026-04-16 20:10 | -23.47434 | -43.97943 | 36007 ft | 415 kts | 256° |
| 2026-04-16 20:10 | -23.48841 | -44.04035 | 36005 ft | 415 kts | 256° |
| 2026-04-16 20:11 | -23.50244 | -44.10133 | 36007 ft | 415 kts | 256° |
| 2026-04-16 20:11 | -23.51651 | -44.16231 | 36006 ft | 415 kts | 256° |
| 2026-04-16 20:12 | -23.53050 | -44.22322 | 36008 ft | 415 kts | 256° |
| 2026-04-16 20:12 | -23.54446 | -44.28420 | 36006 ft | 414 kts | 256° |
| 2026-04-16 20:13 | -23.55842 | -44.34511 | 36004 ft | 414 kts | 256° |
| 2026-04-16 20:13 | -23.57234 | -44.40602 | 36004 ft | 414 kts | 256° |
| 2026-04-16 20:14 | -23.58621 | -44.46696 | 36009 ft | 414 kts | 256° |
| 2026-04-16 20:14 | -23.60012 | -44.52785 | 36008 ft | 414 kts | 256° |
| 2026-04-16 20:15 | -23.61170 | -44.57885 | 36008 ft | 414 kts | 256° |
| 2026-04-16 20:15 | -23.62547 | -44.63977 | 36007 ft | 414 kts | 256° |
| 2026-04-16 20:16 | -23.63923 | -44.70064 | 36006 ft | 413 kts | 256° |
| 2026-04-16 20:16 | -23.65295 | -44.76154 | 36006 ft | 413 kts | 257° |
| 2026-04-16 20:17 | -23.66667 | -44.82244 | 36005 ft | 413 kts | 257° |
| 2026-04-16 20:17 | -23.68037 | -44.88330 | 36006 ft | 413 kts | 257° |
| 2026-04-16 20:18 | -23.69410 | -44.94416 | 36008 ft | 413 kts | 257° |
| 2026-04-16 20:18 | -23.70773 | -45.00502 | 36007 ft | 413 kts | 257° |
| 2026-04-16 20:19 | -23.72131 | -45.06591 | 36008 ft | 413 kts | 257° |
| 2026-04-16 20:19 | -23.73497 | -45.12681 | 36009 ft | 413 kts | 257° |
| 2026-04-16 20:20 | -23.74853 | -45.18768 | 36009 ft | 413 kts | 257° |
| 2026-04-16 20:20 | -23.76198 | -45.24864 | 36010 ft | 413 kts | 257° |
| 2026-04-16 20:21 | -23.77542 | -45.30956 | 36004 ft | 413 kts | 257° |
| 2026-04-16 20:21 | -23.78887 | -45.37052 | 36005 ft | 413 kts | 257° |
| 2026-04-16 20:22 | -23.80238 | -45.43189 | 36005 ft | 413 kts | 257° |
| 2026-04-16 20:22 | -23.81574 | -45.49280 | 36003 ft | 412 kts | 257° |
| 2026-04-16 20:23 | -23.82918 | -45.55377 | 36003 ft | 413 kts | 257° |
| 2026-04-16 20:23 | -23.84251 | -45.61472 | 36001 ft | 413 kts | 257° |
| 2026-04-16 20:24 | -23.85579 | -45.67566 | 35998 ft | 413 kts | 257° |
| 2026-04-16 20:24 | -23.86908 | -45.73665 | 35996 ft | 413 kts | 257° |
| 2026-04-16 20:25 | -23.88242 | -45.79759 | 35997 ft | 413 kts | 257° |
| 2026-04-16 20:25 | -23.89576 | -45.85859 | 35995 ft | 413 kts | 257° |
| 2026-04-16 20:26 | -23.90904 | -45.91957 | 35993 ft | 413 kts | 257° |
| 2026-04-16 20:26 | -23.92224 | -45.98060 | 35989 ft | 412 kts | 257° |
| 2026-04-16 20:27 | -23.93542 | -46.04156 | 35983 ft | 412 kts | 257° |
| 2026-04-16 20:27 | -23.94859 | -46.10259 | 35976 ft | 412 kts | 257° |
| 2026-04-16 20:28 | -23.96176 | -46.16359 | 35974 ft | 412 kts | 257° |
| 2026-04-16 20:28 | -23.97493 | -46.22462 | 35969 ft | 412 kts | 257° |
| 2026-04-16 20:29 | -23.99007 | -46.28502 | 35969 ft | 413 kts | 252° |
| 2026-04-16 20:29 | -24.00902 | -46.34432 | 35969 ft | 413 kts | 252° |
| 2026-04-16 20:30 | -24.02809 | -46.40394 | 35973 ft | 413 kts | 252° |
| 2026-04-16 20:30 | -24.04698 | -46.46318 | 35983 ft | 412 kts | 252° |
| 2026-04-16 20:31 | -24.06584 | -46.52240 | 35988 ft | 412 kts | 252° |
| 2026-04-16 20:31 | -24.08462 | -46.58169 | 35994 ft | 412 kts | 252° |
| 2026-04-16 20:32 | -24.10340 | -46.64100 | 36002 ft | 412 kts | 252° |
| 2026-04-16 20:32 | -24.12217 | -46.70023 | 36003 ft | 412 kts | 252° |
| 2026-04-16 20:33 | -24.14088 | -46.75948 | 36004 ft | 412 kts | 252° |
| 2026-04-16 20:33 | -24.15956 | -46.81869 | 36004 ft | 411 kts | 252° |
| 2026-04-16 20:34 | -24.17823 | -46.87788 | 36003 ft | 411 kts | 252° |
| 2026-04-16 20:34 | -24.19685 | -46.93714 | 36004 ft | 411 kts | 252° |
| 2026-04-16 20:35 | -24.21544 | -46.99632 | 36001 ft | 411 kts | 252° |
| 2026-04-16 20:35 | -24.23399 | -47.05547 | 36004 ft | 411 kts | 253° |
| 2026-04-16 20:36 | -24.25252 | -47.11460 | 35997 ft | 410 kts | 252° |
| 2026-04-16 20:36 | -24.27088 | -47.17380 | 35994 ft | 410 kts | 253° |
| 2026-04-16 20:37 | -24.28818 | -47.23327 | 35992 ft | 409 kts | 254° |
| 2026-04-16 20:37 | -24.30519 | -47.29280 | 35989 ft | 409 kts | 254° |
| 2026-04-16 20:38 | -24.32248 | -47.35268 | 35986 ft | 409 kts | 254° |
| 2026-04-16 20:38 | -24.33979 | -47.41209 | 35977 ft | 409 kts | 254° |
| 2026-04-16 20:39 | -24.35710 | -47.47152 | 35973 ft | 409 kts | 253° |
| 2026-04-16 20:39 | -24.37432 | -47.53089 | 35971 ft | 409 kts | 254° |
| 2026-04-16 20:40 | -24.39141 | -47.59028 | 35974 ft | 409 kts | 254° |
| 2026-04-16 20:40 | -24.40858 | -47.64978 | 35971 ft | 409 kts | 252° |
| 2026-04-16 20:41 | -24.43580 | -47.70462 | 35967 ft | 415 kts | 234° |
| 2026-04-16 20:41 | -24.47749 | -47.74930 | 35972 ft | 420 kts | 227° |
| 2026-04-16 20:42 | -24.52037 | -47.79296 | 35972 ft | 420 kts | 228° |
| 2026-04-16 20:42 | -24.56320 | -47.83672 | 35970 ft | 421 kts | 228° |
| 2026-04-16 20:43 | -24.60604 | -47.88060 | 35971 ft | 421 kts | 228° |
| 2026-04-16 20:43 | -24.64902 | -47.92438 | 35972 ft | 422 kts | 227° |
| 2026-04-16 20:44 | -24.69203 | -47.96833 | 35974 ft | 422 kts | 228° |
| 2026-04-16 20:44 | -24.73494 | -48.01234 | 35974 ft | 419 kts | 228° |
| 2026-04-16 20:45 | -24.75598 | -48.03385 | 35800 ft | 408 kts | 228° |
| 2026-04-16 20:45 | -24.77662 | -48.05496 | 35436 ft | 403 kts | 228° |
| 2026-04-16 20:45 | -24.79705 | -48.07586 | 34997 ft | 399 kts | 228° |
| 2026-04-16 20:45 | -24.81757 | -48.09689 | 34564 ft | 397 kts | 228° |
| 2026-04-16 20:46 | -24.83744 | -48.11729 | 34106 ft | 395 kts | 228° |
| 2026-04-16 20:46 | -24.85770 | -48.13814 | 33604 ft | 393 kts | 228° |
| 2026-04-16 20:46 | -24.87760 | -48.15865 | 33066 ft | 391 kts | 228° |
| 2026-04-16 20:46 | -24.89742 | -48.17904 | 32549 ft | 389 kts | 228° |
| 2026-04-16 20:47 | -24.91712 | -48.19933 | 32081 ft | 387 kts | 228° |
| 2026-04-16 20:47 | -24.93011 | -48.21272 | 31765 ft | 386 kts | 228° |
| 2026-04-16 20:47 | -24.94967 | -48.23288 | 31321 ft | 384 kts | 227° |
| 2026-04-16 20:47 | -24.96829 | -48.25373 | 30867 ft | 379 kts | 233° |
| 2026-04-16 20:48 | -24.98407 | -48.27674 | 30423 ft | 374 kts | 240° |
| 2026-04-16 20:48 | -24.99683 | -48.30149 | 29990 ft | 370 kts | 246° |
| 2026-04-16 20:48 | -25.00813 | -48.32695 | 29496 ft | 369 kts | 246° |
| 2026-04-16 20:48 | -25.01946 | -48.35230 | 29038 ft | 368 kts | 246° |
| 2026-04-16 20:49 | -25.03075 | -48.37749 | 28601 ft | 366 kts | 246° |
| 2026-04-16 20:49 | -25.04201 | -48.40257 | 28189 ft | 364 kts | 246° |
| 2026-04-16 20:49 | -25.05321 | -48.42749 | 27787 ft | 362 kts | 246° |
| 2026-04-16 20:49 | -25.06436 | -48.45234 | 27391 ft | 361 kts | 246° |
| 2026-04-16 20:50 | -25.07548 | -48.47710 | 26997 ft | 359 kts | 246° |
| 2026-04-16 20:50 | -25.08652 | -48.50168 | 26600 ft | 357 kts | 246° |
| 2026-04-16 20:50 | -25.09025 | -48.51001 | 26473 ft | 356 kts | 246° |